Time;durP1;ratioP1;P1;durP2;ratioP2;P2;SDS_P1;SDS_P2;PMS_P1;PMS_P2;Temp;Humidity;BMP_temperature;BMP_pressure;BME280_temperature;BME280_humidity;BME280_pressure;Samples;Min_cycle;Max_cycle;Signal;HPM_P1;HPM_P2
2022/11/22 00:02:14;;;;;;;12.27;9.57;;;5.10;99.90;;;;;;5023112;28;20203;-88
2022/11/22 00:04:40;;;;;;;13.20;9.77;;;5.10;99.90;;;;;;5014929;28;20212;-87
2022/11/22 00:07:07;;;;;;;11.40;8.70;;;5.20;99.90;;;;;;5013678;28;20261;-86
2022/11/22 00:09:33;;;;;;;13.20;9.57;;;5.20;99.90;;;;;;5016414;28;20185;-86
2022/11/22 00:11:59;;;;;;;13.70;9.63;;;5.20;99.90;;;;;;5000469;28;20181;-89
2022/11/22 00:14:25;;;;;;;14.27;9.93;;;5.20;99.90;;;;;;5013337;28;20177;-90
2022/11/22 00:16:51;;;;;;;14.90;9.07;;;5.20;99.90;;;;;;5013441;28;20188;-89
2022/11/22 00:19:17;;;;;;;12.20;9.03;;;5.20;99.90;;;;;;5012955;28;20644;-89
2022/11/22 00:21:42;;;;;;;12.00;9.27;;;5.30;99.90;;;;;;5016474;28;20189;-88
2022/11/22 00:24:11;;;;;;;13.50;9.87;;;5.30;99.90;;;;;;5011392;28;20262;-90
2022/11/22 00:26:37;;;;;;;12.60;9.37;;;5.20;99.90;;;;;;5026866;28;20654;-89
2022/11/22 00:29:02;;;;;;;13.23;9.77;;;5.20;99.90;;;;;;5017299;28;20216;-89
2022/11/22 00:31:28;;;;;;;12.90;9.17;;;5.20;99.90;;;;;;5016683;28;20185;-89
2022/11/22 00:33:54;;;;;;;15.50;10.07;;;5.10;99.90;;;;;;4999238;28;20208;-89
2022/11/22 00:36:20;;;;;;;16.00;10.80;;;5.10;99.90;;;;;;5016774;28;20540;-88
2022/11/22 00:38:45;;;;;;;13.93;10.00;;;5.10;99.90;;;;;;4999368;28;20174;-88
2022/11/22 00:41:11;;;;;;;14.47;9.63;;;5.10;99.90;;;;;;5000731;28;20251;-89
2022/11/22 00:43:38;;;;;;;13.90;10.30;;;5.10;99.90;;;;;;5001350;28;20216;-89
2022/11/22 00:46:04;;;;;;;15.27;10.93;;;5.10;99.90;;;;;;5016796;28;20629;-89
2022/11/22 00:48:30;;;;;;;16.60;10.17;;;5.20;99.90;;;;;;5017051;28;20268;-89
2022/11/22 00:50:56;;;;;;;15.70;10.33;;;5.10;99.90;;;;;;5016621;28;20540;-88
2022/11/22 00:53:22;;;;;;;12.30;9.63;;;5.10;99.90;;;;;;5016179;28;20255;-87
2022/11/22 00:55:48;;;;;;;16.33;10.93;;;5.10;99.90;;;;;;5016182;28;20180;-86
2022/11/22 00:58:14;;;;;;;14.30;10.17;;;5.20;99.90;;;;;;5016917;28;20525;-88
2022/11/22 01:00:40;;;;;;;16.53;10.67;;;5.10;99.90;;;;;;5018578;28;20179;-88
2022/11/22 01:03:10;;;;;;;15.47;9.60;;;5.10;99.90;;;;;;5035830;28;20187;-87
2022/11/22 01:05:36;;;;;;;15.23;9.97;;;5.00;99.90;;;;;;5039554;28;20164;-88
2022/11/22 01:08:02;;;;;;;15.27;10.30;;;4.90;99.90;;;;;;4992612;28;20185;-88
2022/11/22 01:10:28;;;;;;;15.07;9.90;;;4.80;99.90;;;;;;5017401;28;20299;-89
2022/11/22 01:12:55;;;;;;;15.17;10.17;;;4.80;99.90;;;;;;5016793;28;20662;-89
2022/11/22 01:15:21;;;;;;;14.47;9.80;;;4.80;99.90;;;;;;4998310;28;20177;-89
2022/11/22 01:17:47;;;;;;;16.57;9.40;;;4.80;99.90;;;;;;4998706;28;20272;-89
2022/11/22 01:20:13;;;;;;;17.10;10.27;;;4.70;99.90;;;;;;4998140;28;20181;-89
2022/11/22 01:22:39;;;;;;;18.20;11.10;;;4.80;99.90;;;;;;5016154;28;20640;-90
2022/11/22 01:25:05;;;;;;;15.83;11.23;;;4.70;99.90;;;;;;5015569;28;20207;-89
2022/11/22 01:27:31;;;;;;;17.70;11.23;;;4.70;99.90;;;;;;5015884;28;20175;-87
2022/11/22 01:29:57;;;;;;;16.30;10.93;;;4.70;99.90;;;;;;5016083;28;20250;-87
2022/11/22 01:32:23;;;;;;;15.47;10.13;;;4.80;99.90;;;;;;5030715;28;20174;-87
2022/11/22 01:34:48;;;;;;;15.73;11.13;;;4.80;99.90;;;;;;5014307;28;20181;-86
2022/11/22 01:37:14;;;;;;;13.17;10.13;;;4.80;99.90;;;;;;4999879;28;20248;-87
2022/11/22 01:39:40;;;;;;;18.27;11.07;;;4.80;99.90;;;;;;5016257;28;20638;-87
2022/11/22 01:42:06;;;;;;;16.30;10.43;;;5.00;99.90;;;;;;5015890;28;20169;-86
2022/11/22 01:44:32;;;;;;;19.57;10.63;;;5.00;99.90;;;;;;4997759;28;20264;-90
2022/11/22 01:47:17;;;;;;;16.83;10.77;;;5.00;99.90;;;;;;4999693;28;20184;-88
2022/11/22 01:50:03;;;;;;;16.73;10.80;;;5.00;99.90;;;;;;5020802;28;20648;-87
2022/11/22 01:52:31;;;;;;;16.10;10.70;;;5.00;99.90;;;;;;4997980;28;20184;-89
2022/11/22 01:55:07;;;;;;;16.90;10.77;;;5.00;99.90;;;;;;5015065;28;20184;-88
2022/11/22 01:57:37;;;;;;;14.03;10.43;;;5.10;99.90;;;;;;5015112;28;20160;-87
2022/11/22 02:00:08;;;;;;;13.63;10.23;;;5.10;99.90;;;;;;5015401;28;20168;-88
2022/11/22 02:02:34;;;;;;;13.20;9.93;;;5.10;99.90;;;;;;5015399;28;20258;-87
2022/11/22 02:05:11;;;;;;;14.67;10.30;;;5.10;99.90;;;;;;5015544;28;20208;-86
2022/11/22 02:07:47;;;;;;;15.77;10.17;;;5.00;99.90;;;;;;5030344;28;20161;-85
2022/11/22 02:10:16;;;;;;;16.07;10.13;;;5.00;99.90;;;;;;5019361;28;20169;-88
2022/11/22 02:12:42;;;;;;;15.13;10.73;;;5.00;99.90;;;;;;4998171;28;20184;-88
2022/11/22 02:15:09;;;;;;;14.53;10.00;;;5.10;99.90;;;;;;5014693;28;20173;-87
2022/11/22 02:17:35;;;;;;;15.60;10.67;;;5.10;99.90;;;;;;5014588;28;20223;-88
2022/11/22 02:20:01;;;;;;;13.20;9.20;;;5.10;99.90;;;;;;5014447;28;20587;-87
2022/11/22 02:22:38;;;;;;;14.90;9.90;;;5.00;99.90;;;;;;5014686;28;20182;-88
2022/11/22 02:25:26;;;;;;;14.73;10.23;;;5.00;99.90;;;;;;4996984;28;20230;-89
2022/11/22 02:27:52;;;;;;;11.63;9.13;;;5.00;99.90;;;;;;5014661;28;20213;-89
2022/11/22 02:30:18;;;;;;;13.20;10.00;;;5.00;99.90;;;;;;4997030;28;20677;-87
2022/11/22 02:32:44;;;;;;;14.53;10.30;;;5.00;99.90;;;;;;5014686;28;20169;-89
2022/11/22 02:35:22;;;;;;;13.73;9.77;;;4.90;99.90;;;;;;5020113;28;20177;-88
2022/11/22 02:37:53;;;;;;;11.23;9.10;;;4.90;99.90;;;;;;5016268;28;20184;-89
2022/11/22 02:40:20;;;;;;;11.90;8.80;;;4.90;99.90;;;;;;5014648;28;20520;-88
2022/11/22 02:42:54;;;;;;;10.83;8.53;;;4.90;99.90;;;;;;5014765;28;20181;-89
2022/11/22 02:45:20;;;;;;;11.90;8.77;;;4.90;99.90;;;;;;4995845;28;20208;-89
2022/11/22 02:47:46;;;;;;;13.07;8.80;;;5.00;99.90;;;;;;4997628;28;20641;-87
2022/11/22 02:50:11;;;;;;;12.00;9.40;;;4.90;99.90;;;;;;5019858;28;20174;-88
2022/11/22 02:52:37;;;;;;;10.87;8.70;;;5.00;99.90;;;;;;5038159;28;20188;-87
2022/11/22 02:55:03;;;;;;;11.90;8.67;;;5.00;99.90;;;;;;5038588;28;20170;-87
2022/11/22 02:57:29;;;;;;;11.43;8.80;;;5.00;99.90;;;;;;5037916;28;20177;-88
2022/11/22 02:59:55;;;;;;;9.53;8.07;;;5.00;99.90;;;;;;5035916;28;20181;-90
2022/11/22 03:02:21;;;;;;;13.47;9.07;;;5.00;99.90;;;;;;5014754;28;20295;-89
2022/11/22 03:04:46;;;;;;;14.50;9.40;;;5.10;99.90;;;;;;5015045;28;20717;-89
2022/11/22 03:07:12;;;;;;;16.53;9.20;;;5.00;99.90;;;;;;5020060;28;20170;-89
2022/11/22 03:09:38;;;;;;;14.10;8.50;;;5.00;99.90;;;;;;5036644;28;20182;-88
2022/11/22 03:12:04;;;;;;;13.40;9.97;;;4.90;99.90;;;;;;5014958;28;20183;-87
2022/11/22 03:14:29;;;;;;;10.57;8.97;;;4.90;99.90;;;;;;4996263;28;20185;-88
2022/11/22 03:16:55;;;;;;;12.33;9.03;;;4.90;99.90;;;;;;5013931;28;20528;-88
2022/11/22 03:19:21;;;;;;;14.03;9.70;;;4.90;99.90;;;;;;4996665;28;20212;-89
2022/11/22 03:21:47;;;;;;;14.17;10.57;;;4.90;99.90;;;;;;5014124;28;20169;-89
2022/11/22 03:24:13;;;;;;;13.23;9.47;;;4.90;99.90;;;;;;5016564;28;20219;-90
2022/11/22 03:26:39;;;;;;;12.33;9.43;;;4.90;99.90;;;;;;5025414;28;20178;-90
2022/11/22 03:29:05;;;;;;;16.27;10.63;;;4.90;99.90;;;;;;5008009;28;20235;-88
2022/11/22 03:31:31;;;;;;;13.87;10.27;;;4.90;99.90;;;;;;5015325;28;20180;-90
2022/11/22 03:33:57;;;;;;;14.97;10.50;;;4.90;99.90;;;;;;5014533;28;20599;-90
2022/11/22 03:36:23;;;;;;;14.67;10.40;;;4.90;99.90;;;;;;5012611;28;20209;-89
2022/11/22 03:38:49;;;;;;;14.07;10.30;;;5.00;99.90;;;;;;5013869;28;20174;-89
2022/11/22 03:41:15;;;;;;;15.53;10.97;;;5.00;99.90;;;;;;5013650;28;20543;-89
2022/11/22 03:43:41;;;;;;;15.33;10.70;;;5.00;99.90;;;;;;5012180;28;20204;-86
2022/11/22 03:46:16;;;;;;;16.37;11.03;;;5.00;99.90;;;;;;5013445;28;20512;-88
2022/11/22 03:48:41;;;;;;;17.20;11.07;;;5.00;99.90;;;;;;5022188;28;20161;-86
2022/11/22 03:51:07;;;;;;;19.07;11.57;;;5.00;99.90;;;;;;5018845;28;20593;-90
2022/11/22 03:53:33;;;;;;;18.20;11.23;;;5.00;99.90;;;;;;5013593;28;20262;-88
2022/11/22 03:55:59;;;;;;;18.93;11.90;;;5.00;99.90;;;;;;5013246;28;20648;-89
2022/11/22 03:58:25;;;;;;;18.80;11.23;;;5.00;99.90;;;;;;5013047;28;20188;-89
2022/11/22 04:00:51;;;;;;;16.43;10.93;;;5.00;99.90;;;;;;5013415;28;20176;-89
2022/11/22 04:03:17;;;;;;;14.53;10.03;;;5.00;99.90;;;;;;5012926;28;20536;-89
2022/11/22 04:05:44;;;;;;;15.20;9.77;;;4.90;99.90;;;;;;5012931;28;20200;-87
2022/11/22 04:08:10;;;;;;;16.40;10.03;;;4.90;99.90;;;;;;5012994;28;20583;-89
2022/11/22 04:10:35;;;;;;;19.80;9.33;;;4.90;99.90;;;;;;5012905;28;20189;-89
2022/11/22 04:13:01;;;;;;;16.97;10.23;;;4.90;99.90;;;;;;5014139;28;20667;-88
2022/11/22 04:15:27;;;;;;;17.67;10.77;;;4.90;99.90;;;;;;5013737;28;20262;-89
2022/11/22 04:17:53;;;;;;;13.40;10.00;;;4.90;99.90;;;;;;5013257;28;20217;-88
2022/11/22 04:23:10;;;;;;;17.43;10.73;;;5.00;99.90;;;;;;5015186;28;20175;-89
2022/11/22 04:25:39;;;;;;;16.57;10.87;;;5.10;99.90;;;;;;5013510;28;20196;-90
2022/11/22 04:28:06;;;;;;;16.80;11.30;;;5.10;99.90;;;;;;5013418;28;20177;-89
2022/11/22 04:33:17;;;;;;;16.70;10.93;;;5.00;99.90;;;;;;5013560;28;20198;-88
2022/11/22 04:35:43;;;;;;;16.50;11.23;;;5.00;99.90;;;;;;5013820;28;20177;-89
2022/11/22 04:38:10;;;;;;;16.63;11.57;;;5.00;99.90;;;;;;5005878;28;20185;-89
2022/11/22 04:52:52;;;;;;;18.30;11.63;;;5.10;99.90;;;;;;5014357;28;20175;-89
2022/11/22 04:52:57;;;;;;;16.73;11.80;;;5.10;99.90;;;;;;5015732;28;20659;-89
2022/11/22 04:55:23;;;;;;;19.13;11.73;;;5.10;99.90;;;;;;5014017;28;20173;-90
2022/11/22 04:57:49;;;;;;;17.30;10.90;;;5.20;99.90;;;;;;5014487;28;20177;-89
2022/11/22 05:00:15;;;;;;;16.60;10.80;;;5.20;99.90;;;;;;4995585;28;20177;-89
2022/11/22 05:02:41;;;;;;;16.83;11.80;;;5.10;99.90;;;;;;5021896;28;20172;-89
2022/11/22 05:05:07;;;;;;;17.13;11.53;;;5.10;99.90;;;;;;5020132;28;20216;-89
2022/11/22 05:07:33;;;;;;;18.87;11.53;;;5.10;99.90;;;;;;5014069;28;20194;-88
2022/11/22 05:09:59;;;;;;;16.17;10.67;;;5.20;99.90;;;;;;5035644;28;20185;-86
2022/11/22 05:12:24;;;;;;;18.70;10.47;;;5.20;99.90;;;;;;5006989;28;20178;-87
2022/11/22 05:14:50;;;;;;;19.93;10.57;;;5.10;99.90;;;;;;5022875;28;20249;-89
2022/11/22 05:17:16;;;;;;;23.23;11.23;;;5.20;99.90;;;;;;5017871;28;20172;-87
2022/11/22 05:19:42;;;;;;;17.50;10.20;;;5.20;99.90;;;;;;5016834;28;20176;-88
2022/11/22 05:22:07;;;;;;;16.20;9.07;;;5.00;99.90;;;;;;5030113;28;20189;-88
2022/11/22 05:24:33;;;;;;;19.13;9.43;;;5.00;99.90;;;;;;5001889;28;20210;-88
2022/11/22 05:27:00;;;;;;;17.27;9.33;;;5.00;99.90;;;;;;5035705;28;20231;-89
2022/11/22 05:29:26;;;;;;;16.80;10.00;;;5.00;99.90;;;;;;5025507;28;20224;-88
2022/11/22 05:31:55;;;;;;;17.83;10.07;;;5.00;99.90;;;;;;5051003;28;20184;-87
2022/11/22 05:34:21;;;;;;;14.67;9.20;;;5.00;99.90;;;;;;5041871;28;20549;-87
2022/11/22 05:36:46;;;;;;;16.33;9.47;;;5.00;99.90;;;;;;5044248;28;20251;-85
2022/11/22 05:39:12;;;;;;;14.23;9.27;;;5.10;99.90;;;;;;5018683;28;20180;-89
2022/11/22 05:41:38;;;;;;;15.73;9.40;;;5.10;99.90;;;;;;5018423;28;20201;-89
2022/11/22 05:44:04;;;;;;;15.03;10.00;;;5.10;99.90;;;;;;5018562;28;20199;-88
2022/11/22 05:46:30;;;;;;;16.53;9.40;;;5.10;99.90;;;;;;5016104;28;20180;-89
2022/11/22 05:48:57;;;;;;;15.93;9.90;;;5.10;99.90;;;;;;5023888;28;20174;-89
2022/11/22 05:51:29;;;;;;;14.00;8.87;;;5.00;99.90;;;;;;5023642;28;20161;-90
2022/11/22 05:53:56;;;;;;;18.10;10.73;;;5.10;99.90;;;;;;5021729;28;20222;-89
2022/11/22 05:56:23;;;;;;;20.87;10.97;;;5.10;99.90;;;;;;5022525;28;20252;-88
2022/11/22 05:58:54;;;;;;;15.83;10.53;;;5.10;99.90;;;;;;5037079;28;20192;-90
2022/11/22 06:01:22;;;;;;;16.00;11.00;;;5.20;99.90;;;;;;5035076;28;20641;-90
2022/11/22 06:03:49;;;;;;;18.53;11.83;;;5.20;99.90;;;;;;5033413;28;20295;-89
2022/11/22 06:06:15;;;;;;;16.30;10.90;;;5.20;99.90;;;;;;5034994;28;20177;-86
2022/11/22 06:08:45;;;;;;;19.17;11.43;;;5.20;99.90;;;;;;5034935;28;20698;-88
2022/11/22 06:11:17;;;;;;;17.40;11.97;;;5.20;99.90;;;;;;5035932;28;20157;-88
2022/11/22 06:13:57;;;;;;;16.00;10.97;;;5.20;99.90;;;;;;5034482;28;20181;-89
2022/11/22 06:16:35;;;;;;;17.03;11.17;;;5.30;99.90;;;;;;5043710;28;20178;-89
2022/11/22 06:19:12;;;;;;;14.93;10.80;;;5.30;99.90;;;;;;5052249;28;20260;-89
2022/11/22 06:21:38;;;;;;;20.03;11.97;;;5.30;99.90;;;;;;5042116;28;20579;-90
2022/11/22 06:24:04;;;;;;;17.17;11.80;;;5.30;99.90;;;;;;5036369;28;20280;-90
2022/11/22 06:26:29;;;;;;;18.40;11.20;;;5.20;99.90;;;;;;5036135;28;20179;-89
2022/11/22 06:28:55;;;;;;;20.67;12.47;;;5.20;99.90;;;;;;5031279;28;20583;-88
2022/11/22 06:31:24;;;;;;;20.43;12.10;;;5.20;99.90;;;;;;5035904;28;20176;-89
2022/11/22 06:33:51;;;;;;;20.63;12.60;;;5.20;99.90;;;;;;5050545;28;20248;-89
2022/11/22 06:36:20;;;;;;;20.47;13.07;;;5.40;99.90;;;;;;5057952;28;20164;-90
2022/11/22 06:38:46;;;;;;;18.83;12.27;;;5.40;99.90;;;;;;5029283;28;20188;-89
2022/11/22 06:41:18;;;;;;;15.63;11.07;;;5.40;99.90;;;;;;5042602;28;20176;-87
2022/11/22 06:43:51;;;;;;;21.13;12.80;;;5.50;99.90;;;;;;5041074;28;20240;-88
2022/11/22 06:46:19;;;;;;;17.73;11.70;;;5.50;99.90;;;;;;5038599;28;20176;-88
2022/11/22 06:48:46;;;;;;;19.03;13.10;;;5.50;99.90;;;;;;5017046;28;20235;-91
2022/11/22 06:51:17;;;;;;;19.20;12.27;;;5.60;99.90;;;;;;5037574;28;20183;-88
2022/11/22 06:53:44;;;;;;;21.63;12.87;;;5.60;99.90;;;;;;5018278;28;20178;-88
2022/11/22 06:56:15;;;;;;;18.73;12.50;;;5.60;99.90;;;;;;5039265;28;20196;-90
2022/11/22 06:58:42;;;;;;;22.43;13.70;;;5.50;99.90;;;;;;5025201;28;20171;-92
2022/11/22 07:01:14;;;;;;;23.77;12.47;;;5.50;99.90;;;;;;5020717;28;20215;-91
2022/11/22 07:03:40;;;;;;;20.90;12.83;;;5.50;99.90;;;;;;5035262;28;20205;-90
2022/11/22 07:06:08;;;;;;;21.97;12.60;;;5.50;99.90;;;;;;5035034;28;20170;-91
2022/11/22 07:08:35;;;;;;;23.37;13.20;;;5.50;99.90;;;;;;5017384;28;20254;-90
2022/11/22 07:11:02;;;;;;;22.30;12.97;;;5.50;99.90;;;;;;5034903;28;20173;-90
2022/11/22 07:13:27;;;;;;;20.87;12.63;;;5.50;99.90;;;;;;5034530;28;20177;-87
2022/11/22 07:15:56;;;;;;;21.47;12.80;;;5.50;99.90;;;;;;5036054;28;20643;-87
2022/11/22 07:18:23;;;;;;;22.10;13.60;;;5.50;99.90;;;;;;5030068;28;20179;-90
2022/11/22 07:20:49;;;;;;;21.03;12.83;;;5.50;99.90;;;;;;5044390;28;20168;-92
2022/11/22 07:23:15;;;;;;;18.47;12.63;;;5.50;99.90;;;;;;5035149;28;20259;-89
2022/11/22 07:25:47;;;;;;;20.50;11.67;;;5.60;99.90;;;;;;5015616;28;20226;-90
2022/11/22 07:28:14;;;;;;;19.87;11.60;;;5.60;99.90;;;;;;5031904;28;20203;-87
2022/11/22 07:30:40;;;;;;;19.13;11.93;;;5.60;99.90;;;;;;5023910;28;20179;-89
2022/11/22 07:33:07;;;;;;;23.37;13.30;;;5.60;99.90;;;;;;5015838;28;20169;-88
2022/11/22 07:35:34;;;;;;;20.00;13.07;;;5.80;99.90;;;;;;5014886;28;20170;-90
2022/11/22 07:37:59;;;;;;;20.47;13.10;;;5.80;99.90;;;;;;4999249;28;20189;-88
2022/11/22 07:40:25;;;;;;;22.60;13.23;;;5.80;99.90;;;;;;5023076;28;20174;-89
2022/11/22 07:42:51;;;;;;;21.30;13.83;;;5.80;99.90;;;;;;4999298;28;20324;-89
2022/11/22 07:45:17;;;;;;;22.87;12.90;;;5.90;99.90;;;;;;4999089;28;20672;-86
2022/11/22 07:47:43;;;;;;;21.30;12.47;;;5.90;99.90;;;;;;5020623;28;20175;-88
2022/11/22 07:50:09;;;;;;;22.67;12.97;;;6.00;99.90;;;;;;5034862;28;20185;-89
2022/11/22 07:52:35;;;;;;;20.20;12.47;;;6.00;99.90;;;;;;5034650;28;20200;-89
2022/11/22 07:55:02;;;;;;;21.07;13.77;;;6.00;99.90;;;;;;5031042;28;20175;-87
2022/11/22 07:57:27;;;;;;;19.87;12.60;;;6.00;99.90;;;;;;5005718;28;20180;-87
2022/11/22 07:59:53;;;;;;;22.53;13.23;;;6.00;99.90;;;;;;5015543;28;20176;-87
2022/11/22 08:02:19;;;;;;;23.80;13.40;;;6.10;99.90;;;;;;5018110;28;20204;-89
2022/11/22 08:04:46;;;;;;;23.83;12.73;;;6.20;99.90;;;;;;5020204;28;20213;-89
2022/11/22 08:07:15;;;;;;;19.30;13.03;;;6.20;99.90;;;;;;5016424;28;20539;-88
2022/11/22 08:09:42;;;;;;;21.67;12.83;;;6.30;99.90;;;;;;4997603;28;20181;-90
2022/11/22 08:12:07;;;;;;;20.53;12.93;;;6.30;99.90;;;;;;4995938;28;20191;-88
2022/11/22 08:14:33;;;;;;;20.73;12.27;;;6.20;99.90;;;;;;4996070;28;20178;-89
2022/11/22 08:16:59;;;;;;;24.60;12.87;;;6.30;99.90;;;;;;5013850;28;20667;-90
2022/11/22 08:19:25;;;;;;;21.27;13.17;;;6.30;99.90;;;;;;5018474;28;20175;-90
2022/11/22 08:21:51;;;;;;;23.70;13.27;;;6.40;99.90;;;;;;5007438;28;20184;-90
2022/11/22 08:24:16;;;;;;;23.47;13.77;;;6.40;99.90;;;;;;5010106;28;20755;-90
2022/11/22 08:26:42;;;;;;;22.13;13.70;;;6.50;99.90;;;;;;5021556;28;20181;-90
2022/11/22 08:29:11;;;;;;;19.60;12.37;;;6.50;99.90;;;;;;5033579;28;20234;-90
2022/11/22 08:31:37;;;;;;;22.07;13.73;;;6.50;99.90;;;;;;5035870;28;20176;-91
2022/11/22 08:34:04;;;;;;;20.90;12.93;;;6.40;99.90;;;;;;5027781;28;20176;-87
2022/11/22 08:36:30;;;;;;;18.37;12.83;;;6.40;99.90;;;;;;4996887;28;20245;-88
2022/11/22 08:39:02;;;;;;;21.63;12.87;;;6.40;99.90;;;;;;4997085;28;20249;-87
2022/11/22 08:41:31;;;;;;;22.83;13.37;;;6.40;99.90;;;;;;5000323;28;20615;-88
2022/11/22 08:43:57;;;;;;;21.53;13.50;;;6.30;99.90;;;;;;5000111;28;20218;-90
2022/11/22 08:46:23;;;;;;;21.00;12.97;;;6.40;99.90;;;;;;4999612;28;20548;-89
2022/11/22 08:48:52;;;;;;;20.40;13.07;;;6.50;99.90;;;;;;5017663;28;20222;-89
2022/11/22 08:51:18;;;;;;;23.13;14.30;;;6.50;99.90;;;;;;5017237;28;20169;-89
2022/11/22 08:53:44;;;;;;;22.40;12.93;;;6.40;99.90;;;;;;5017099;28;20182;-89
2022/11/22 08:56:12;;;;;;;24.77;14.03;;;6.40;99.90;;;;;;5016986;28;20178;-90
2022/11/22 08:58:38;;;;;;;20.50;13.20;;;6.40;99.90;;;;;;5017374;28;20191;-89
2022/11/22 09:01:06;;;;;;;19.03;13.03;;;6.40;99.90;;;;;;5028583;28;20176;-90
2022/11/22 09:03:34;;;;;;;21.83;13.23;;;6.40;99.90;;;;;;5033103;28;20190;-90
2022/11/22 09:06:05;;;;;;;20.80;12.80;;;6.40;99.90;;;;;;5031522;28;20175;-87
2022/11/22 09:08:32;;;;;;;21.63;12.40;;;6.40;99.90;;;;;;5026730;28;20175;-88
2022/11/22 09:11:06;;;;;;;20.43;12.90;;;6.40;99.90;;;;;;5022753;28;20173;-89
2022/11/22 09:13:31;;;;;;;16.03;11.67;;;6.50;99.90;;;;;;5016649;28;20171;-88
2022/11/22 09:16:02;;;;;;;24.97;13.00;;;6.40;99.90;;;;;;5037462;28;20180;-88
2022/11/22 09:18:28;;;;;;;17.53;11.90;;;6.40;99.90;;;;;;5010516;28;20318;-89
2022/11/22 09:21:01;;;;;;;21.13;12.63;;;6.50;99.90;;;;;;4999460;28;20182;-90
2022/11/22 09:23:28;;;;;;;19.77;11.93;;;6.50;99.90;;;;;;4999246;28;20279;-91
2022/11/22 09:26:05;;;;;;;17.53;11.97;;;6.60;99.90;;;;;;4999280;28;20191;-90
2022/11/22 09:28:31;;;;;;;21.03;12.30;;;6.70;99.90;;;;;;5018390;28;20569;-89
2022/11/22 09:31:08;;;;;;;21.57;12.07;;;6.60;99.90;;;;;;5032190;28;20213;-89
2022/11/22 09:33:36;;;;;;;18.23;12.00;;;6.70;99.90;;;;;;5022185;28;20650;-90
2022/11/22 09:36:05;;;;;;;21.53;12.50;;;6.80;99.90;;;;;;4999552;28;20177;-89
2022/11/22 09:39:14;;;;;;;17.90;11.90;;;6.80;99.90;;;;;;5018216;28;20178;-90
2022/11/22 09:41:40;;;;;;;19.07;12.37;;;6.90;99.90;;;;;;4902902;29;20292;-89
2022/11/22 09:44:34;;;;;;;20.57;12.70;;;7.00;99.90;;;;;;4918681;29;20220;-89
2022/11/22 09:47:18;;;;;;;19.20;12.60;;;7.00;99.90;;;;;;4917671;29;20195;-89
2022/11/22 09:50:00;;;;;;;20.83;13.37;;;7.30;99.90;;;;;;4917704;29;20252;-91
2022/11/22 09:52:48;;;;;;;22.87;13.80;;;7.40;99.90;;;;;;4917292;29;20624;-90
2022/11/22 09:55:39;;;;;;;21.37;12.97;;;7.50;99.90;;;;;;4882759;29;20200;-91
2022/11/22 09:58:11;;;;;;;20.73;13.17;;;7.60;99.90;;;;;;4918437;29;20221;-89
2022/11/22 10:00:38;;;;;;;22.13;13.30;;;7.60;99.90;;;;;;4915484;29;20225;-90
2022/11/22 10:03:44;;;;;;;20.87;12.90;;;7.60;99.90;;;;;;4931427;29;20191;-90
2022/11/22 10:06:28;;;;;;;20.47;13.27;;;7.50;99.90;;;;;;4852708;29;20213;-87
2022/11/22 10:09:01;;;;;;;26.57;13.70;;;7.50;99.90;;;;;;4917320;29;20510;-90
2022/11/22 10:11:56;;;;;;;23.57;13.33;;;7.50;99.90;;;;;;4948681;28;20187;-90
2022/11/22 10:14:26;;;;;;;20.40;12.87;;;7.60;99.90;;;;;;5016271;28;20212;-90
2022/11/22 10:17:08;;;;;;;20.43;13.20;;;7.50;99.90;;;;;;5017208;28;20698;-89
2022/11/22 10:19:42;;;;;;;22.83;13.50;;;7.50;99.90;;;;;;5007410;28;20268;-89
2022/11/22 10:22:13;;;;;;;20.57;13.80;;;7.60;99.90;;;;;;5038359;28;20169;-89
2022/11/22 10:24:41;;;;;;;19.80;13.57;;;7.50;99.90;;;;;;5016067;28;20682;-89
2022/11/22 10:27:14;;;;;;;22.27;14.60;;;7.40;99.90;;;;;;5022141;28;20174;-86
2022/11/22 10:30:01;;;;;;;23.20;13.93;;;7.40;99.90;;;;;;5017746;28;20639;-89
2022/11/22 10:32:39;;;;;;;22.13;14.07;;;7.20;99.90;;;;;;5016978;28;20541;-90
2022/11/22 10:35:38;;;;;;;20.77;13.83;;;7.10;99.90;;;;;;4997895;28;20185;-87
2022/11/22 10:38:25;;;;;;;20.63;13.17;;;7.20;99.90;;;;;;5015447;28;20244;-88
2022/11/22 10:41:23;;;;;;;19.57;12.43;;;7.20;99.90;;;;;;4997818;28;20179;-87
2022/11/22 10:44:21;;;;;;;22.53;13.80;;;7.20;99.90;;;;;;4963799;28;20218;-86
2022/11/22 10:47:07;;;;;;;18.37;12.33;;;7.40;99.90;;;;;;4963232;28;20199;-86
2022/11/22 10:49:45;;;;;;;20.10;12.40;;;7.50;99.90;;;;;;5006485;28;20629;-87
2022/11/22 10:52:43;;;;;;;20.90;11.60;;;7.50;99.90;;;;;;5017714;28;20211;-90
2022/11/22 10:55:27;;;;;;;19.27;11.37;;;7.60;99.90;;;;;;4998964;28;20301;-90
2022/11/22 10:58:16;;;;;;;15.70;10.97;;;7.70;99.90;;;;;;4999274;28;20173;-90
2022/11/22 11:00:48;;;;;;;17.07;11.00;;;7.60;99.90;;;;;;4998718;28;20265;-87
2022/11/22 11:03:35;;;;;;;16.73;11.13;;;7.50;99.90;;;;;;5017535;28;20174;-90
2022/11/22 11:06:07;;;;;;;15.30;10.23;;;7.30;99.90;;;;;;5028315;28;20714;-87
2022/11/22 11:08:35;;;;;;;16.57;10.37;;;7.20;99.90;;;;;;5017971;28;20229;-89
2022/11/22 11:11:01;;;;;;;13.37;9.30;;;7.30;99.90;;;;;;5015853;28;20199;-90
2022/11/22 11:13:33;;;;;;;15.33;10.30;;;7.20;99.90;;;;;;4997677;28;20179;-90
2022/11/22 11:16:03;;;;;;;12.77;10.00;;;7.30;99.90;;;;;;5014977;28;20174;-89
2022/11/22 11:18:50;;;;;;;15.53;10.40;;;7.30;99.90;;;;;;4996743;28;20195;-91
2022/11/22 11:21:16;;;;;;;16.07;9.97;;;7.40;99.90;;;;;;5014463;28;20650;-90
2022/11/22 11:23:42;;;;;;;15.47;11.07;;;7.50;99.90;;;;;;5014259;28;20195;-91
2022/11/22 11:26:23;;;;;;;13.33;10.10;;;7.70;99.90;;;;;;5018601;28;20191;-89
2022/11/22 11:28:49;;;;;;;12.03;9.50;;;7.90;99.90;;;;;;5016194;28;20222;-89
2022/11/22 11:31:17;;;;;;;17.23;11.37;;;8.10;99.90;;;;;;5014273;28;20187;-90
2022/11/22 11:33:44;;;;;;;18.00;11.10;;;8.10;99.90;;;;;;5014089;28;20173;-90
2022/11/22 11:36:16;;;;;;;13.43;9.27;;;8.30;99.90;;;;;;5014756;28;20172;-90
2022/11/22 11:38:42;;;;;;;16.37;9.97;;;8.30;99.90;;;;;;5028841;28;20180;-88
2022/11/22 11:41:30;;;;;;;13.57;10.07;;;8.40;99.90;;;;;;5020295;28;20181;-87
2022/11/22 11:43:58;;;;;;;13.67;10.50;;;8.40;99.90;;;;;;5014939;28;20251;-91
2022/11/22 11:46:26;;;;;;;13.77;9.90;;;8.30;99.90;;;;;;4996858;28;20212;-87
2022/11/22 11:49:07;;;;;;;15.87;10.60;;;8.30;99.90;;;;;;4996401;28;20181;-89
2022/11/22 11:51:39;;;;;;;13.67;10.17;;;8.30;99.90;;;;;;5015224;28;20809;-90
2022/11/22 11:54:19;;;;;;;15.30;10.83;;;8.30;99.90;;;;;;4996879;28;20180;-89
2022/11/22 11:57:06;;;;;;;18.30;11.00;;;8.30;99.90;;;;;;5014309;28;20173;-89
2022/11/22 11:59:38;;;;;;;16.63;11.10;;;8.30;99.90;;;;;;4997180;28;20178;-90
2022/11/22 12:02:18;;;;;;;14.63;10.57;;;8.40;99.90;;;;;;5015690;28;20177;-90
2022/11/22 12:04:52;;;;;;;15.90;11.57;;;8.30;99.90;;;;;;5015543;28;20217;-89
2022/11/22 12:07:34;;;;;;;12.37;9.30;;;8.30;99.90;;;;;;4999216;28;20174;-89
2022/11/22 12:10:02;;;;;;;14.73;10.80;;;8.20;99.90;;;;;;5018744;28;20166;-91
2022/11/22 12:12:45;;;;;;;13.50;10.03;;;8.10;99.90;;;;;;5013428;28;20187;-90
2022/11/22 12:15:25;;;;;;;16.50;10.07;;;8.10;99.90;;;;;;5036107;28;20170;-88
2022/11/22 12:18:26;;;;;;;12.37;9.27;;;8.10;99.90;;;;;;5023356;28;20182;-90
2022/11/22 12:21:06;;;;;;;13.00;9.20;;;8.00;99.90;;;;;;4982328;28;20189;-91
2022/11/22 12:23:46;;;;;;;11.27;8.17;;;8.00;99.90;;;;;;5002875;28;20595;-90
2022/11/22 12:26:13;;;;;;;13.73;8.37;;;8.10;99.90;;;;;;5004529;28;20169;-87
2022/11/22 12:28:40;;;;;;;10.77;8.37;;;8.20;99.90;;;;;;5022008;28;20225;-87
2022/11/22 12:31:27;;;;;;;13.77;10.03;;;8.20;99.90;;;;;;5001309;28;20177;-87
2022/11/22 12:33:57;;;;;;;12.30;9.63;;;8.30;99.90;;;;;;5018245;28;20162;-88
2022/11/22 12:36:47;;;;;;;18.50;12.20;;;8.40;99.90;;;;;;5026137;28;20175;-88
2022/11/22 12:39:23;;;;;;;14.57;10.07;;;8.40;99.90;;;;;;5022798;28;20178;-88
2022/11/22 12:41:57;;;;;;;16.70;11.23;;;8.40;99.90;;;;;;5034747;28;20189;-90
2022/11/22 12:44:23;;;;;;;16.97;12.27;;;8.30;99.90;;;;;;5001394;28;20210;-87
2022/11/22 12:46:59;;;;;;;17.47;12.13;;;8.30;99.90;;;;;;5018989;28;20256;-87
2022/11/22 12:49:28;;;;;;;18.27;10.87;;;8.30;99.90;;;;;;5019344;28;20172;-89
2022/11/22 12:52:09;;;;;;;18.13;11.57;;;8.30;99.90;;;;;;5018092;28;20269;-89
2022/11/22 12:55:01;;;;;;;14.70;11.00;;;8.10;99.90;;;;;;4999898;28;20532;-91
2022/11/22 12:57:38;;;;;;;17.37;12.23;;;8.00;99.90;;;;;;5004194;28;20195;-91
2022/11/22 13:00:17;;;;;;;15.80;11.33;;;8.00;99.90;;;;;;4999691;28;20200;-90
2022/11/22 13:03:03;;;;;;;16.83;11.70;;;7.90;99.90;;;;;;5017111;28;20222;-89
2022/11/22 13:05:56;;;;;;;14.83;10.63;;;7.80;99.90;;;;;;5017055;28;20296;-90
2022/11/22 13:08:25;;;;;;;10.87;9.00;;;7.80;99.90;;;;;;5014101;28;20196;-90
2022/11/22 13:11:01;;;;;;;10.17;8.10;;;7.80;99.90;;;;;;4999819;28;20209;-90